createdAt,value
2022-10-05T00:00:38.829Z,10.03
2022-10-05T00:01:38.823Z,10.03
2022-10-05T00:02:38.766Z,10.03
2022-10-05T00:03:38.812Z,10.03
2022-10-05T00:04:38.767Z,10.02
2022-10-05T00:05:38.738Z,10.02
2022-10-05T00:06:38.723Z,10.02
2022-10-05T00:07:38.710Z,10.02
2022-10-05T00:08:38.696Z,10.03
2022-10-05T00:09:38.708Z,10.03
2022-10-05T00:10:38.697Z,10.02
2022-10-05T00:11:38.659Z,10.02
2022-10-05T00:12:38.646Z,10.02
2022-10-05T00:13:38.648Z,10.01
2022-10-05T00:14:38.677Z,10.01
2022-10-05T00:15:38.615Z,10.01
2022-10-05T00:16:38.644Z,10.01
2022-10-05T00:17:38.596Z,10.00
2022-10-05T00:18:38.601Z,10.00
2022-10-05T00:19:38.582Z,9.99
2022-10-05T00:20:38.547Z,9.98
2022-10-05T00:21:38.545Z,9.98
2022-10-05T00:22:38.515Z,9.98
2022-10-05T00:23:38.503Z,9.99
2022-10-05T00:24:38.515Z,9.99
2022-10-05T00:25:38.512Z,9.99
2022-10-05T00:26:38.483Z,9.99
2022-10-05T00:27:38.454Z,9.99
2022-10-05T00:28:38.562Z,9.99
2022-10-05T00:29:38.483Z,9.99
2022-10-05T00:30:38.443Z,10.00
2022-10-05T00:31:38.511Z,10.00
2022-10-05T00:32:38.414Z,10.00
2022-10-05T00:33:38.397Z,10.00
2022-10-05T00:34:38.402Z,9.99
2022-10-05T00:35:38.417Z,9.99
2022-10-05T00:36:38.366Z,9.98
2022-10-05T00:37:38.352Z,9.98
2022-10-05T00:38:38.364Z,9.97
2022-10-05T00:39:38.330Z,9.96
2022-10-05T00:40:38.342Z,9.96
2022-10-05T00:41:38.317Z,9.96
2022-10-05T00:42:38.285Z,9.95
2022-10-05T00:43:38.276Z,9.94
2022-10-05T00:44:38.276Z,9.94
2022-10-05T00:45:38.279Z,9.93
2022-10-05T00:46:38.267Z,9.92
2022-10-05T00:47:38.223Z,9.91
2022-10-05T00:48:38.227Z,9.90
2022-10-05T00:49:38.202Z,9.90
2022-10-05T00:50:38.255Z,9.90
2022-10-05T00:51:38.230Z,9.90
2022-10-05T00:52:38.237Z,9.91
2022-10-05T00:53:38.166Z,9.92
2022-10-05T00:54:38.195Z,9.93
2022-10-05T00:55:38.156Z,9.95
2022-10-05T00:56:38.182Z,9.95
2022-10-05T00:57:38.153Z,9.96
2022-10-05T00:58:38.098Z,9.96
2022-10-05T00:59:38.081Z,9.97
2022-10-05T01:00:38.097Z,9.97
2022-10-05T01:01:38.100Z,9.97
2022-10-05T01:02:38.142Z,9.97
2022-10-05T01:03:38.057Z,9.97
2022-10-05T01:04:38.041Z,9.97
2022-10-05T01:05:38.018Z,9.97
2022-10-05T01:06:38.011Z,9.97
2022-10-05T01:07:38.049Z,9.96
2022-10-05T01:08:38.020Z,9.96
2022-10-05T01:09:37.970Z,9.96
2022-10-05T01:10:37.967Z,9.96
2022-10-05T01:11:37.948Z,9.95
2022-10-05T01:12:37.967Z,9.95
2022-10-05T01:13:37.932Z,9.94
2022-10-05T01:14:37.914Z,9.94
2022-10-05T01:15:37.903Z,9.94
2022-10-05T01:16:37.945Z,9.94
2022-10-05T01:17:37.909Z,9.95
2022-10-05T01:18:37.911Z,9.95
2022-10-05T01:19:37.870Z,9.95
2022-10-05T01:20:37.858Z,9.95
2022-10-05T01:21:37.830Z,9.95
2022-10-05T01:22:37.816Z,9.95
2022-10-05T01:23:37.807Z,9.95
2022-10-05T01:24:37.832Z,9.95
2022-10-05T01:25:37.796Z,9.94
2022-10-05T01:26:37.802Z,9.94
2022-10-05T01:27:37.774Z,9.94
2022-10-05T01:28:37.863Z,9.93
2022-10-05T01:29:37.742Z,9.92
2022-10-05T01:30:37.781Z,9.91
2022-10-05T01:31:37.744Z,9.91
2022-10-05T01:32:37.722Z,9.90
2022-10-05T01:33:37.712Z,9.89
2022-10-05T01:34:37.705Z,9.89
2022-10-05T01:35:37.725Z,9.88
2022-10-05T01:36:37.711Z,9.88
2022-10-05T01:37:37.652Z,9.87
2022-10-05T01:38:37.673Z,9.87
2022-10-05T01:39:37.645Z,9.86
2022-10-05T01:40:37.678Z,9.86
2022-10-05T01:41:37.626Z,9.85
2022-10-05T01:42:37.606Z,9.85
2022-10-05T01:43:37.604Z,9.84
2022-10-05T01:44:37.592Z,9.83
2022-10-05T01:45:37.631Z,9.82
2022-10-05T01:46:37.563Z,9.81
2022-10-05T01:47:37.563Z,9.81
2022-10-05T01:48:37.540Z,9.81
2022-10-05T01:49:37.519Z,9.80
2022-10-05T01:50:37.537Z,9.80
2022-10-05T01:51:37.513Z,9.80
2022-10-05T01:52:37.479Z,9.80
2022-10-05T01:53:37.471Z,9.79
2022-10-05T01:54:37.469Z,9.79
2022-10-05T01:55:37.442Z,9.78
2022-10-05T01:56:37.731Z,9.78
2022-10-05T01:57:37.450Z,9.78
2022-10-05T01:58:37.404Z,9.77
2022-10-05T01:59:37.405Z,9.76
2022-10-05T02:00:37.454Z,9.75
2022-10-05T02:01:37.441Z,9.74
2022-10-05T02:02:37.454Z,9.74
2022-10-05T02:03:37.371Z,9.73
2022-10-05T02:05:01.107Z,9.72
2022-10-05T02:05:38.337Z,9.72
2022-10-05T02:06:37.331Z,9.71
2022-10-05T02:07:37.304Z,9.70
2022-10-05T02:08:37.298Z,9.69
2022-10-05T02:09:37.283Z,9.69
2022-10-05T02:10:37.285Z,9.68
2022-10-05T02:11:37.263Z,9.67
2022-10-05T02:12:37.244Z,9.66
2022-10-05T02:13:37.246Z,9.65
2022-10-05T02:14:37.234Z,9.64
2022-10-05T02:15:37.283Z,9.63
2022-10-05T02:16:37.233Z,9.63
2022-10-05T02:17:37.201Z,9.62
2022-10-05T02:18:37.193Z,9.61
2022-10-05T02:19:37.174Z,9.60
2022-10-05T02:20:37.158Z,9.59
2022-10-05T02:21:37.154Z,9.58
2022-10-05T02:22:37.140Z,9.56
2022-10-05T02:23:37.125Z,9.56
2022-10-05T02:24:37.126Z,9.55
2022-10-05T02:25:37.105Z,9.54
2022-10-05T02:26:37.144Z,9.52
2022-10-05T02:27:37.093Z,9.51
2022-10-05T02:28:37.108Z,9.50
2022-10-05T02:29:37.066Z,9.49
2022-10-05T02:30:37.045Z,9.48
2022-10-05T02:31:37.069Z,9.47
2022-10-05T02:32:37.057Z,9.46
2022-10-05T02:33:37.029Z,9.45
2022-10-05T02:34:36.998Z,9.45
2022-10-05T02:35:36.978Z,9.44
2022-10-05T02:36:36.996Z,9.43
2022-10-05T02:37:36.965Z,9.42
2022-10-05T02:38:36.943Z,9.41
2022-10-05T02:39:36.944Z,9.40
2022-10-05T02:40:36.937Z,9.39
2022-10-05T02:41:36.916Z,9.38
2022-10-05T02:42:36.946Z,9.36
2022-10-05T02:43:36.889Z,9.35
2022-10-05T02:44:36.874Z,9.34
2022-10-05T02:45:36.917Z,9.33
2022-10-05T02:46:36.874Z,9.32
2022-10-05T02:47:36.871Z,9.31
2022-10-05T02:48:36.851Z,9.30
2022-10-05T02:49:36.861Z,9.28
2022-10-05T02:50:36.838Z,9.26
2022-10-05T02:51:36.797Z,9.24
2022-10-05T02:52:36.825Z,9.23
2022-10-05T02:53:36.766Z,9.21
2022-10-05T02:54:36.795Z,9.20
2022-10-05T02:55:36.807Z,9.18
2022-10-05T02:56:36.756Z,9.16
2022-10-05T02:57:36.767Z,9.15
2022-10-05T02:58:36.749Z,9.13
2022-10-05T02:59:36.717Z,9.11
2022-10-05T03:00:36.723Z,9.09
2022-10-05T03:01:36.787Z,9.07
2022-10-05T03:02:36.688Z,9.06
2022-10-05T03:03:36.660Z,9.05
2022-10-05T03:04:36.655Z,9.04
2022-10-05T03:05:36.638Z,9.03
2022-10-05T03:06:36.616Z,9.02
2022-10-05T03:07:36.655Z,9.00
2022-10-05T03:08:36.627Z,8.98
2022-10-05T03:09:36.608Z,8.96
2022-10-05T03:10:36.590Z,8.94
2022-10-05T03:11:36.601Z,8.92
2022-10-05T03:12:36.614Z,8.90
2022-10-05T03:13:36.559Z,8.88
2022-10-05T03:14:36.547Z,8.86
2022-10-05T03:15:36.833Z,8.83
2022-10-05T03:16:36.512Z,8.80
2022-10-05T03:17:36.499Z,8.77
2022-10-05T03:18:36.544Z,8.74
2022-10-05T03:19:36.477Z,8.72
2022-10-05T03:20:36.462Z,8.70
2022-10-05T03:21:36.461Z,8.69
2022-10-05T03:22:36.438Z,8.68
2022-10-05T03:23:36.440Z,8.68
2022-10-05T03:24:36.440Z,8.68
2022-10-05T03:25:36.489Z,8.67
2022-10-05T03:26:36.404Z,8.67
2022-10-05T03:27:36.379Z,8.67
2022-10-05T03:28:36.448Z,8.66
2022-10-05T03:29:36.360Z,8.66
2022-10-05T03:30:36.383Z,8.66
2022-10-05T03:31:36.371Z,8.67
2022-10-05T03:32:36.329Z,8.67
2022-10-05T03:33:36.335Z,8.67
2022-10-05T03:34:36.349Z,8.67
2022-10-05T03:35:36.303Z,8.67
2022-10-05T03:36:36.317Z,8.67
2022-10-05T03:37:36.291Z,8.66
2022-10-05T03:38:36.268Z,8.65
2022-10-05T03:39:36.260Z,8.64
2022-10-05T03:40:36.243Z,8.63
2022-10-05T03:41:36.306Z,8.62
2022-10-05T03:42:36.217Z,8.61
2022-10-05T03:43:36.211Z,8.61
2022-10-05T03:44:36.242Z,8.60
2022-10-05T03:45:36.214Z,8.60
2022-10-05T03:46:36.256Z,8.59
2022-10-05T03:47:36.160Z,8.59
2022-10-05T03:48:36.142Z,8.59
2022-10-05T03:49:36.142Z,8.59
2022-10-05T03:50:36.147Z,8.58
2022-10-05T03:51:36.102Z,8.58
2022-10-05T03:52:36.108Z,8.58
2022-10-05T03:53:36.092Z,8.57
2022-10-05T03:54:36.110Z,8.56
2022-10-05T03:55:36.103Z,8.56
2022-10-05T03:56:36.062Z,8.55
2022-10-05T03:57:36.100Z,8.56
2022-10-05T03:58:36.040Z,8.56
2022-10-05T03:59:36.040Z,8.57
2022-10-05T04:00:36.060Z,8.57
2022-10-05T04:01:36.070Z,8.58
2022-10-05T04:02:36.093Z,8.59
2022-10-05T04:03:35.990Z,8.59
2022-10-05T04:04:35.996Z,8.59
2022-10-05T04:05:35.990Z,8.59
2022-10-05T04:06:35.953Z,8.59
2022-10-05T04:07:35.951Z,8.58
2022-10-05T04:08:35.909Z,8.57
2022-10-05T04:09:35.913Z,8.56
2022-10-05T04:10:35.905Z,8.55
2022-10-05T04:11:35.925Z,8.54
2022-10-05T04:12:35.887Z,8.53
2022-10-05T04:13:35.902Z,8.51
2022-10-05T04:14:35.863Z,8.50
2022-10-05T04:15:35.879Z,8.48
2022-10-05T04:16:35.853Z,8.46
2022-10-05T04:17:35.845Z,8.44
2022-10-05T04:18:35.827Z,8.42
2022-10-05T04:19:35.787Z,8.40
2022-10-05T04:20:35.803Z,8.39
2022-10-05T04:21:35.805Z,8.37
2022-10-05T04:22:35.764Z,8.35
2022-10-05T04:23:35.786Z,8.33
2022-10-05T04:24:35.772Z,8.32
2022-10-05T04:25:35.734Z,8.30
2022-10-05T04:26:35.734Z,8.28
2022-10-05T04:27:35.722Z,8.27
2022-10-05T04:28:35.774Z,8.25
2022-10-05T04:29:35.674Z,8.23
2022-10-05T04:30:35.680Z,8.21
2022-10-05T04:31:35.748Z,8.19
2022-10-05T04:32:35.660Z,8.17
2022-10-05T04:33:35.654Z,8.15
2022-10-05T04:34:35.630Z,8.14
2022-10-05T04:35:35.634Z,8.12
2022-10-05T04:36:35.617Z,8.11
2022-10-05T04:37:35.627Z,8.10
2022-10-05T04:38:35.575Z,8.09
2022-10-05T04:39:35.561Z,8.09
2022-10-05T04:40:35.572Z,8.10
2022-10-05T04:41:35.577Z,8.10
2022-10-05T04:42:35.562Z,8.11
2022-10-05T04:43:35.546Z,8.11
2022-10-05T04:44:35.513Z,8.10
2022-10-05T04:45:35.515Z,8.08
2022-10-05T04:46:35.607Z,8.07
2022-10-05T04:47:35.475Z,8.05
2022-10-05T04:48:35.464Z,8.04
2022-10-05T04:49:35.465Z,8.03
2022-10-05T04:50:35.461Z,8.01
2022-10-05T04:51:35.445Z,8.00
2022-10-05T04:52:35.445Z,7.99
2022-10-05T04:53:35.426Z,7.97
2022-10-05T04:54:35.401Z,7.96
2022-10-05T04:55:35.415Z,7.95
2022-10-05T04:56:35.408Z,7.95
2022-10-05T04:57:35.404Z,7.95
2022-10-05T04:58:40.033Z,7.96
2022-10-05T04:59:36.365Z,7.98
2022-10-05T05:00:35.376Z,8.00
2022-10-05T05:01:35.319Z,8.02
2022-10-05T05:02:35.327Z,8.04
2022-10-05T05:03:35.346Z,8.08
2022-10-05T05:04:35.286Z,8.12
2022-10-05T05:05:35.276Z,8.17
2022-10-05T05:06:35.285Z,8.20
2022-10-05T05:07:35.258Z,8.24
2022-10-05T05:08:35.271Z,8.27
2022-10-05T05:09:35.251Z,8.31
2022-10-05T05:10:35.217Z,8.35
2022-10-05T05:11:35.206Z,8.39
2022-10-05T05:12:35.214Z,8.42
2022-10-05T05:13:35.210Z,8.46
2022-10-05T05:14:35.207Z,8.50
2022-10-05T05:15:35.190Z,8.55
2022-10-05T05:16:35.198Z,8.60
2022-10-05T05:17:35.152Z,8.64
2022-10-05T05:18:35.139Z,8.68
2022-10-05T05:19:35.126Z,8.69
2022-10-05T05:20:35.127Z,8.70
2022-10-05T05:21:35.108Z,8.71
2022-10-05T05:22:35.112Z,8.71
2022-10-05T05:23:35.086Z,8.72
2022-10-05T05:24:35.071Z,8.71
2022-10-05T05:25:35.132Z,8.71
2022-10-05T05:26:38.882Z,8.70
2022-10-05T05:27:35.018Z,8.70
2022-10-05T05:28:35.080Z,8.70
2022-10-05T05:29:35.010Z,8.70
2022-10-05T05:30:34.987Z,8.70
2022-10-05T05:31:35.069Z,8.71
2022-10-05T05:32:34.995Z,8.71
2022-10-05T05:33:34.966Z,8.72
2022-10-05T05:34:34.963Z,8.72
2022-10-05T05:35:34.957Z,8.72
2022-10-05T05:36:34.971Z,8.72
2022-10-05T05:37:34.928Z,8.72
2022-10-05T05:38:34.904Z,8.72
2022-10-05T05:39:34.900Z,8.72
2022-10-05T05:40:34.878Z,8.72
2022-10-05T05:41:34.899Z,8.73
2022-10-05T05:42:34.861Z,8.73
2022-10-05T05:43:34.849Z,8.74
2022-10-05T05:44:38.537Z,8.75
2022-10-05T05:45:34.849Z,8.77
2022-10-05T05:47:01.801Z,8.79
2022-10-05T05:47:35.822Z,8.81
2022-10-05T05:48:34.858Z,8.82
2022-10-05T05:49:34.829Z,8.83
2022-10-05T05:50:34.775Z,8.84
2022-10-05T05:51:34.781Z,8.85
2022-10-05T05:52:34.750Z,8.85
2022-10-05T05:53:34.743Z,8.85
2022-10-05T05:54:34.759Z,8.86
2022-10-05T05:55:34.734Z,8.86
2022-10-05T05:56:34.789Z,8.87
2022-10-05T05:57:34.730Z,8.87
2022-10-05T05:58:34.690Z,8.88
2022-10-05T05:59:34.681Z,8.88
2022-10-05T06:00:34.670Z,8.89
2022-10-05T06:01:34.692Z,8.90
2022-10-05T06:02:34.786Z,8.92
2022-10-05T06:03:34.637Z,8.93
2022-10-05T06:04:34.619Z,8.94
2022-10-05T06:05:34.608Z,8.95
2022-10-05T06:06:34.621Z,8.97
2022-10-05T06:07:34.616Z,8.98
2022-10-05T06:08:34.625Z,8.99
2022-10-05T06:09:34.566Z,9.00
2022-10-05T06:10:34.560Z,9.01
2022-10-05T06:11:34.541Z,9.01
2022-10-05T06:12:34.530Z,9.02
2022-10-05T06:13:34.578Z,9.02
2022-10-05T06:14:34.512Z,9.03
2022-10-05T06:15:34.503Z,9.05
2022-10-05T06:16:34.545Z,9.07
2022-10-05T06:17:34.505Z,9.09
2022-10-05T06:18:34.497Z,9.12
2022-10-05T06:19:34.452Z,9.14
2022-10-05T06:20:34.444Z,9.16
2022-10-05T06:21:34.430Z,9.17
2022-10-05T06:22:34.420Z,9.19
2022-10-05T06:23:34.432Z,9.20
2022-10-05T06:24:34.413Z,9.23
2022-10-05T06:25:34.382Z,9.25
2022-10-05T06:26:34.414Z,9.27
2022-10-05T06:27:34.374Z,9.29
2022-10-05T06:28:34.425Z,9.31
2022-10-05T06:29:34.375Z,9.34
2022-10-05T06:30:34.320Z,9.36
2022-10-05T06:31:34.401Z,9.38
2022-10-05T06:32:34.310Z,9.40
2022-10-05T06:33:34.284Z,9.42
2022-10-05T06:34:34.303Z,9.45
2022-10-05T06:35:34.292Z,9.47
2022-10-05T06:36:34.263Z,9.49
2022-10-05T06:37:34.262Z,9.50
2022-10-05T06:38:34.235Z,9.52
2022-10-05T06:39:34.223Z,9.53
2022-10-05T06:40:34.231Z,9.55
2022-10-05T06:41:34.204Z,9.57
2022-10-05T06:42:34.175Z,9.58
2022-10-05T06:43:34.174Z,9.59
2022-10-05T06:44:34.180Z,9.60
2022-10-05T06:45:34.285Z,9.62
2022-10-05T06:46:34.139Z,9.63
2022-10-05T06:47:34.142Z,9.66
2022-10-05T06:48:34.132Z,9.70
2022-10-05T06:49:34.094Z,9.73
2022-10-05T06:50:34.126Z,9.77
2022-10-05T06:51:34.111Z,9.81
2022-10-05T06:52:34.093Z,9.85
2022-10-05T06:53:34.056Z,9.89
2022-10-05T06:54:34.075Z,9.93
2022-10-05T06:55:34.038Z,9.97
2022-10-05T06:56:34.046Z,10.02
2022-10-05T06:57:33.994Z,10.06
2022-10-05T06:58:33.999Z,10.10
2022-10-05T06:59:33.968Z,10.15
2022-10-05T07:00:33.972Z,10.20
2022-10-05T07:01:34.040Z,10.24
2022-10-05T07:02:34.010Z,10.28
2022-10-05T07:03:33.926Z,10.32
2022-10-05T07:04:36.981Z,10.37
2022-10-05T07:05:33.916Z,10.41
2022-10-05T07:06:33.925Z,10.49
2022-10-05T07:07:33.906Z,10.62
2022-10-05T07:08:33.891Z,10.77
2022-10-05T07:09:33.875Z,10.90
2022-10-05T07:10:33.879Z,11.02
2022-10-05T07:11:33.851Z,11.13
2022-10-05T07:12:33.862Z,11.22
2022-10-05T07:13:33.816Z,11.31
2022-10-05T07:14:33.818Z,11.40
2022-10-05T07:15:33.793Z,11.47
2022-10-05T07:16:33.888Z,11.52
2022-10-05T07:17:33.790Z,11.55
2022-10-05T07:18:33.791Z,11.57
2022-10-05T07:19:33.809Z,11.57
2022-10-05T07:20:33.759Z,11.56
2022-10-05T07:21:33.723Z,11.55
2022-10-05T07:22:34.495Z,11.54
2022-10-05T07:23:33.747Z,11.52
2022-10-05T07:24:33.723Z,11.51
2022-10-05T07:25:33.687Z,11.49
2022-10-05T07:26:33.713Z,11.49
2022-10-05T07:27:33.785Z,11.48
2022-10-05T07:28:33.709Z,11.48
2022-10-05T07:29:33.667Z,11.48
2022-10-05T07:30:33.667Z,11.48
2022-10-05T07:31:33.621Z,11.48
2022-10-05T07:32:33.607Z,11.47
2022-10-05T07:33:33.583Z,11.47
2022-10-05T07:34:33.609Z,11.47
2022-10-05T07:35:33.584Z,11.47
2022-10-05T07:36:33.584Z,11.49
2022-10-05T07:37:33.550Z,11.50
2022-10-05T07:38:33.551Z,11.52
2022-10-05T07:39:58.433Z,11.53
2022-10-05T07:40:34.526Z,11.54
2022-10-05T07:41:33.511Z,11.55
2022-10-05T07:42:33.497Z,11.56
2022-10-05T07:43:57.474Z,11.57
2022-10-05T07:44:34.491Z,11.56
2022-10-05T07:45:33.522Z,11.57
2022-10-05T07:46:33.442Z,11.57
2022-10-05T07:47:33.431Z,11.59
2022-10-05T07:48:33.424Z,11.61
2022-10-05T07:49:33.428Z,11.63
2022-10-05T07:50:33.513Z,11.65
2022-10-05T07:51:33.387Z,11.67
2022-10-05T07:52:34.880Z,11.69
2022-10-05T07:53:33.370Z,11.71
2022-10-05T07:54:33.352Z,11.73
2022-10-05T07:55:33.341Z,11.74
2022-10-05T07:56:33.389Z,11.76
2022-10-05T07:57:33.321Z,11.78
2022-10-05T07:58:33.324Z,11.81
2022-10-05T07:59:33.307Z,11.83
2022-10-05T08:00:33.271Z,11.86
2022-10-05T08:01:33.353Z,11.88
2022-10-05T08:02:33.404Z,11.90
2022-10-05T08:03:33.245Z,11.93
2022-10-05T08:04:35.198Z,11.95
2022-10-05T08:05:33.229Z,11.98
2022-10-05T08:06:33.211Z,12.00
2022-10-05T08:07:33.212Z,12.01
2022-10-05T08:08:33.188Z,12.03
2022-10-05T08:09:33.190Z,12.04
2022-10-05T08:10:33.162Z,12.05
2022-10-05T08:11:33.155Z,12.05
2022-10-05T08:12:33.154Z,12.06
2022-10-05T08:13:33.153Z,12.07
2022-10-05T08:14:33.122Z,12.09
2022-10-05T08:15:33.202Z,12.11
2022-10-05T08:16:33.093Z,12.13
2022-10-05T08:17:33.071Z,12.15
2022-10-05T08:18:33.151Z,12.17
2022-10-05T08:19:33.089Z,12.20
2022-10-05T08:20:33.068Z,12.23
2022-10-05T08:21:33.040Z,12.26
2022-10-05T08:22:33.022Z,12.30
2022-10-05T08:23:33.034Z,12.33
2022-10-05T08:24:33.007Z,12.36
2022-10-05T08:25:33.043Z,12.39
2022-10-05T08:26:33.007Z,12.41
2022-10-05T08:27:32.951Z,12.44
2022-10-05T08:28:33.018Z,12.48
2022-10-05T08:29:32.986Z,12.51
2022-10-05T08:30:32.934Z,12.53
2022-10-05T08:31:33.010Z,12.53
2022-10-05T08:32:32.929Z,12.54
2022-10-05T08:33:32.904Z,12.55
2022-10-05T08:34:32.906Z,12.56
2022-10-05T08:35:32.874Z,12.59
2022-10-05T08:36:32.877Z,12.61
2022-10-05T08:37:32.870Z,12.65
2022-10-05T08:38:32.842Z,12.69
2022-10-05T08:39:32.827Z,12.75
2022-10-05T08:40:32.854Z,12.84
2022-10-05T08:41:32.833Z,12.94
2022-10-05T08:42:32.795Z,13.03
2022-10-05T08:43:35.343Z,13.12
2022-10-05T08:44:32.777Z,13.22
2022-10-05T08:45:32.779Z,13.32
2022-10-05T08:46:32.891Z,13.43
2022-10-05T08:47:32.739Z,13.56
2022-10-05T08:48:32.750Z,13.67
2022-10-05T08:49:35.179Z,13.76
2022-10-05T08:50:32.719Z,13.81
2022-10-05T08:51:32.727Z,13.87
2022-10-05T08:52:32.684Z,13.92
2022-10-05T08:53:32.675Z,13.98
2022-10-05T08:54:32.692Z,14.02
2022-10-05T08:55:32.648Z,14.06
2022-10-05T08:56:32.667Z,14.10
2022-10-05T08:57:32.643Z,14.13
2022-10-05T08:58:32.623Z,14.15
2022-10-05T08:59:32.615Z,14.17
2022-10-05T09:00:32.601Z,14.21
2022-10-05T09:01:32.610Z,14.25
2022-10-05T09:02:32.662Z,14.31
2022-10-05T09:03:34.569Z,14.38
2022-10-05T09:04:32.580Z,14.43
2022-10-05T09:05:32.553Z,14.49
2022-10-05T09:06:32.529Z,14.54
2022-10-05T09:07:35.501Z,14.61
2022-10-05T09:08:32.492Z,14.67
2022-10-05T09:09:32.549Z,14.71
2022-10-05T09:10:32.483Z,14.73
2022-10-05T09:11:32.470Z,14.76
2022-10-05T09:12:32.450Z,14.80
2022-10-05T09:13:32.464Z,14.85
2022-10-05T09:14:32.449Z,14.90
2022-10-05T09:15:32.437Z,14.93
2022-10-05T09:16:32.400Z,14.96
2022-10-05T09:17:35.900Z,14.99
2022-10-05T09:18:33.467Z,15.01
2022-10-05T09:19:32.381Z,15.03
2022-10-05T09:20:32.366Z,15.06
2022-10-05T09:21:32.338Z,15.09
2022-10-05T09:22:32.373Z,15.10
2022-10-05T09:23:32.412Z,15.10
2022-10-05T09:24:32.330Z,15.11
2022-10-05T09:25:32.304Z,15.12
2022-10-05T09:26:32.303Z,15.14
2022-10-05T09:27:32.298Z,15.15
2022-10-05T09:28:32.437Z,15.15
2022-10-05T09:29:32.241Z,15.16
2022-10-05T09:30:32.295Z,15.18
2022-10-05T09:31:32.308Z,15.19
2022-10-05T09:32:32.224Z,15.21
2022-10-05T09:33:32.235Z,15.22
2022-10-05T09:34:32.269Z,15.22
2022-10-05T09:35:32.183Z,15.21
2022-10-05T09:36:32.174Z,15.21
2022-10-05T09:37:32.166Z,15.21
2022-10-05T09:38:32.161Z,15.21
2022-10-05T09:39:32.162Z,15.23
2022-10-05T09:40:32.125Z,15.25
2022-10-05T09:41:32.114Z,15.29
2022-10-05T09:42:32.103Z,15.31
2022-10-05T09:43:32.093Z,15.32
2022-10-05T09:44:32.107Z,15.34
2022-10-05T09:45:32.075Z,15.35
2022-10-05T09:46:32.118Z,15.35
2022-10-05T09:47:32.059Z,15.34
2022-10-05T09:48:32.028Z,15.34
2022-10-05T09:49:32.036Z,15.34
2022-10-05T09:50:32.040Z,15.36
2022-10-05T09:51:32.019Z,15.39
2022-10-05T09:52:31.990Z,15.42
2022-10-05T09:53:31.976Z,15.45
2022-10-05T09:54:31.973Z,15.48
2022-10-05T09:55:31.990Z,15.51
2022-10-05T09:56:32.000Z,15.53
2022-10-05T09:57:31.931Z,15.57
2022-10-05T09:58:31.926Z,15.62
2022-10-05T09:59:31.920Z,15.65
2022-10-05T10:00:31.934Z,15.68
2022-10-05T10:01:34.245Z,15.69
2022-10-05T10:02:32.009Z,15.70
2022-10-05T10:03:31.899Z,15.72
2022-10-05T10:04:31.873Z,15.75
2022-10-05T10:05:31.854Z,15.77
2022-10-05T10:06:31.835Z,15.78
2022-10-05T10:07:31.821Z,15.79
2022-10-05T10:08:31.810Z,15.79
2022-10-05T10:09:35.198Z,15.76
2022-10-05T10:10:31.787Z,15.73
2022-10-05T10:11:31.794Z,15.72
2022-10-05T10:12:31.785Z,15.72
2022-10-05T10:13:31.753Z,15.73
2022-10-05T10:14:31.740Z,15.74
2022-10-05T10:15:31.791Z,15.76
2022-10-05T10:16:31.749Z,15.78
2022-10-05T10:17:31.719Z,15.80
2022-10-05T10:18:31.720Z,15.81
2022-10-05T10:19:31.713Z,15.82
2022-10-05T10:20:31.674Z,15.82
2022-10-05T10:21:31.687Z,15.82
2022-10-05T10:22:31.667Z,15.83
2022-10-05T10:23:31.646Z,15.84
2022-10-05T10:24:31.677Z,15.85
2022-10-05T10:25:31.606Z,15.88
2022-10-05T10:26:31.621Z,15.90
2022-10-05T10:27:31.593Z,15.93
2022-10-05T10:28:31.606Z,15.96
2022-10-05T10:29:31.596Z,15.98
2022-10-05T10:30:33.172Z,16.00
2022-10-05T10:31:31.620Z,16.03
2022-10-05T10:32:31.555Z,16.07
2022-10-05T10:33:31.514Z,16.12
2022-10-05T10:34:31.526Z,16.19
2022-10-05T10:35:31.604Z,16.30
2022-10-05T10:36:31.509Z,16.42
2022-10-05T10:37:31.493Z,16.51
2022-10-05T10:38:31.473Z,16.58
2022-10-05T10:39:31.455Z,16.66
2022-10-05T10:40:31.458Z,16.74
2022-10-05T10:41:31.437Z,16.82
2022-10-05T10:42:31.477Z,16.89
2022-10-05T10:43:31.406Z,16.95
2022-10-05T10:44:31.394Z,16.99
2022-10-05T10:45:31.390Z,17.02
2022-10-05T10:46:31.424Z,17.05
2022-10-05T10:47:31.351Z,17.09
2022-10-05T10:48:31.354Z,17.12
2022-10-05T10:49:31.342Z,17.14
2022-10-05T10:50:31.324Z,17.15
2022-10-05T10:51:31.299Z,17.17
2022-10-05T10:52:31.289Z,17.21
2022-10-05T10:53:31.299Z,17.26
2022-10-05T10:54:31.258Z,17.32
2022-10-05T10:55:31.263Z,17.37
2022-10-05T10:56:31.271Z,17.41
2022-10-05T10:57:31.251Z,17.44
2022-10-05T10:59:31.846Z,17.50
2022-10-05T11:00:31.248Z,17.53
2022-10-05T11:01:31.246Z,17.56
2022-10-05T11:02:31.336Z,17.58
2022-10-05T11:03:31.180Z,17.59
2022-10-05T11:04:31.200Z,17.60
2022-10-05T11:05:31.199Z,17.61
2022-10-05T11:06:31.146Z,17.61
2022-10-05T11:07:31.128Z,17.61
2022-10-05T11:08:31.158Z,17.61
2022-10-05T11:09:31.110Z,17.62
2022-10-05T11:10:31.100Z,17.64
2022-10-05T11:11:31.225Z,17.66
2022-10-05T11:12:34.562Z,17.68
2022-10-05T11:13:31.061Z,17.70
2022-10-05T11:14:31.090Z,17.72
2022-10-05T11:15:31.057Z,17.74
2022-10-05T11:16:31.040Z,17.76
2022-10-05T11:17:31.015Z,17.79
2022-10-05T11:18:31.031Z,17.81
2022-10-05T11:19:40.442Z,17.82
2022-10-05T11:20:31.973Z,17.83
2022-10-05T11:21:30.990Z,17.85
2022-10-05T11:22:30.957Z,17.87
2022-10-05T11:23:34.164Z,17.88
2022-10-05T11:24:31.963Z,17.88
2022-10-05T11:25:30.927Z,17.89
2022-10-05T11:26:31.034Z,17.90
2022-10-05T11:27:30.915Z,17.92
2022-10-05T11:28:30.931Z,17.93
2022-10-05T11:29:30.875Z,17.93
2022-10-05T11:30:30.892Z,17.94
2022-10-05T11:31:30.928Z,17.97
2022-10-05T11:32:30.821Z,17.99
2022-10-05T11:33:30.823Z,18.00
2022-10-05T11:34:30.824Z,18.01
2022-10-05T11:35:30.805Z,18.01
2022-10-05T11:36:30.825Z,17.99
2022-10-05T11:37:30.805Z,17.98
2022-10-05T11:38:30.799Z,17.98
2022-10-05T11:39:30.754Z,17.97
2022-10-05T11:40:30.750Z,17.97
2022-10-05T11:41:30.768Z,17.97
2022-10-05T11:42:30.731Z,17.96
2022-10-05T11:43:30.728Z,17.94
2022-10-05T11:44:30.706Z,17.92
2022-10-05T11:45:30.778Z,17.91
2022-10-05T11:46:30.774Z,17.90
2022-10-05T11:47:30.684Z,17.89
2022-10-05T11:48:30.687Z,17.87
2022-10-05T11:49:30.637Z,17.86
2022-10-05T11:50:30.645Z,17.85
2022-10-05T11:51:30.623Z,17.84
2022-10-05T11:52:30.638Z,17.82
2022-10-05T11:53:30.618Z,17.81
2022-10-05T11:54:32.510Z,17.80
2022-10-05T11:55:31.597Z,17.78
2022-10-05T11:57:30.609Z,17.75
2022-10-05T11:58:30.532Z,17.75
2022-10-05T11:59:30.549Z,17.75
2022-10-05T12:00:30.560Z,17.74
2022-10-05T12:01:30.513Z,17.72
2022-10-05T12:02:30.521Z,17.70
2022-10-05T12:03:30.572Z,17.69
2022-10-05T12:04:30.495Z,17.67
2022-10-05T12:05:30.460Z,17.65
2022-10-05T12:06:30.460Z,17.64
2022-10-05T12:07:30.446Z,17.63
2022-10-05T12:08:30.467Z,17.63
2022-10-05T12:09:30.409Z,17.61
2022-10-05T12:10:30.460Z,17.60
2022-10-05T12:11:30.413Z,17.60
2022-10-05T12:12:30.377Z,17.59
2022-10-05T12:13:30.388Z,17.59
2022-10-05T12:14:30.367Z,17.58
2022-10-05T12:15:30.371Z,17.57
2022-10-05T12:16:30.344Z,17.56
2022-10-05T12:17:30.344Z,17.54
2022-10-05T12:18:30.404Z,17.53
2022-10-05T12:19:30.311Z,17.53
2022-10-05T12:20:30.327Z,17.53
2022-10-05T12:21:30.269Z,17.55
2022-10-05T12:22:30.291Z,17.56
2022-10-05T12:23:30.288Z,17.56
2022-10-05T12:24:30.245Z,17.57
2022-10-05T12:25:30.240Z,17.58
2022-10-05T12:26:30.242Z,17.59
2022-10-05T12:27:30.285Z,17.60
2022-10-05T12:28:30.256Z,17.61
2022-10-05T12:29:30.249Z,17.62
2022-10-05T12:30:30.223Z,17.63
2022-10-05T12:31:30.215Z,17.64
2022-10-05T12:32:30.157Z,17.65
2022-10-05T12:33:30.179Z,17.66
2022-10-05T12:34:30.182Z,17.67
2022-10-05T12:35:47.370Z,17.68
2022-10-05T12:36:46.280Z,17.69
2022-10-05T12:37:31.101Z,17.71
2022-10-05T12:38:30.088Z,17.72
2022-10-05T12:39:30.139Z,17.72
2022-10-05T12:40:30.054Z,17.72
2022-10-05T12:41:30.067Z,17.72
2022-10-05T12:42:30.037Z,17.72
2022-10-05T12:43:30.103Z,17.73
2022-10-05T12:44:30.007Z,17.74
2022-10-05T12:45:30.095Z,17.75
2022-10-05T12:46:30.005Z,17.75
2022-10-05T12:47:29.985Z,17.76
2022-10-05T12:48:29.975Z,17.77
2022-10-05T12:49:30.008Z,17.78
2022-10-05T12:50:29.986Z,17.80
2022-10-05T12:51:29.939Z,17.82
2022-10-05T12:52:30.132Z,17.82
2022-10-05T12:53:29.925Z,17.81
2022-10-05T12:54:29.899Z,17.80
2022-10-05T12:55:29.915Z,17.77
2022-10-05T12:56:29.885Z,17.75
2022-10-05T12:57:29.869Z,17.73
2022-10-05T12:58:29.867Z,17.71
2022-10-05T12:59:29.857Z,17.68
2022-10-05T13:00:29.872Z,17.66
2022-10-05T13:01:29.857Z,17.64
2022-10-05T13:02:29.829Z,17.63
2022-10-05T13:03:29.804Z,17.61
2022-10-05T13:04:29.789Z,17.60
2022-10-05T13:05:29.790Z,17.57
2022-10-05T13:06:29.767Z,17.54
2022-10-05T13:07:29.740Z,17.51